• Join FlightAware (Why Join?)
  • Login
  • US Flag 
05:06AM EDT


 

Airport Tracker/Info


-or-


 

Live Flight TrackerFlight Track Log ✈ TAM3854 ✈ 23-Jul-2013 ✈ SBCF / CNF - SBBR / BSB

Flight Track Log - Related Links

Times and Time Zones

All times are in EDT time to prevent confusion due to time zone crossing. See the TAM3854 flight status page for this flight to view local times or setup timezone preferences in your user account.

Time Position Orientation Groundspeed Altitude Reporting Facility
EDT Latitude Longitude Course Direction KTS MPH feet Rate Location/Type
10:53PM -18.7597 -44.9058 314° West  Level Estimated
10:54PM -18.7110 -44.9575 315° West  Level Estimated
10:55PM -18.6623 -45.0092 315° West  Level Estimated
10:56PM -18.6135 -45.0609 315° West  Level Estimated
10:57PM -18.5648 -45.1126 315° West  Level Estimated
10:58PM -18.5160 -45.1642 315° West  Level Estimated
10:59PM -18.4673 -45.2159 315° West  Level Estimated
11:00PM -18.4185 -45.2674 315° West  Level Estimated
11:01PM -18.3697 -45.3190 315° West  Level Estimated
11:02PM -18.3209 -45.3705 315° West  Level Estimated
11:03PM -18.2720 -45.4220 315° West  Level Estimated
11:04PM -18.2232 -45.4735 315° West  Level Estimated
11:05PM -18.1744 -45.5249 315° West  Level Estimated
11:06PM -18.1255 -45.5763 315° West  Level Estimated
11:07PM -18.0766 -45.6277 315° West  Level Estimated
11:08PM -18.0277 -45.6791 315° West  Level Estimated
11:09PM -17.9788 -45.7304 315° West  Level Estimated
11:10PM -17.9299 -45.7817 315° West  Level Estimated
11:11PM -17.8810 -45.8329 315° West  Level Estimated
11:12PM -17.8320 -45.8842 315° West  Level Estimated
11:13PM -17.7830 -45.9354 315° West  Level Estimated
11:14PM -17.7341 -45.9866 315° West  Level Estimated
11:15PM -17.6851 -46.0377 315° West  Level Estimated
11:16PM -17.6361 -46.0888 315° West  Level Estimated
11:17PM -17.5871 -46.1399 315° West  Level Estimated
11:18PM -17.5380 -46.1910 315° West  Level Estimated
11:19PM -17.4890 -46.2421 315° West  Level Estimated
11:20PM -17.4400 -46.2931 315° West  Level Estimated
11:21PM -17.3909 -46.3441 315° West  Level Estimated
11:22PM -17.3418 -46.3950 315° West  Level Estimated
11:23PM -17.2927 -46.4460 315° West  Level Estimated
11:24PM -17.2436 -46.4969 315° West  Level Estimated
11:25PM -17.1945 -46.5477 315° West  Level Estimated
11:26PM -17.1454 -46.5986 315° West  Level Estimated
11:27PM -17.0962 -46.6494 315° West  Level Estimated
11:28PM -17.0471 -46.7002 315° West  Level Estimated
11:29PM -16.9979 -46.7510 315° West  Level Estimated
11:30PM -16.9487 -46.8018 315° West  Level Estimated
11:31PM -16.8995 -46.8525 315° West  Level Estimated
11:32PM -16.8503 -46.9032 315° West  Level Estimated
11:33PM -16.8011 -46.9538 315° West  Level Estimated
11:34PM -16.7519 -47.0045 315° West  Level Estimated
11:35PM -16.7026 -47.0551 315° West  Level Estimated
11:36PM -16.6534 -47.1057 315° West  Level Estimated
11:37PM -16.6041 -47.1562 315° West  Level Estimated
11:38PM -16.5548 -47.2068 315° West  Level Estimated
11:39PM -16.5055 -47.2573 316° Northwest  Level Estimated
11:40PM -16.4562 -47.3078 316° Northwest  Level Estimated
11:41PM -16.4069 -47.3582 316° Northwest  Level Estimated
11:42PM -16.3576 -47.4086 316° Northwest  Level Estimated
11:43PM -16.3082 -47.4591 316° Northwest  Level Estimated
11:44PM -16.2589 -47.5094 316° Northwest  Level Estimated
11:45PM -16.2095 -47.5598 316° Northwest  Level Estimated
11:46PM -16.1602 -47.6101 316° Northwest  Level Estimated
11:47PM -16.1108 -47.6604 316° Northwest  Level Estimated
11:48PM -16.0614 -47.7107 316° Northwest  Level Estimated
11:49PM -16.0119 -47.7610 316° Northwest  Level Estimated
11:50PM -15.9625 -47.8112 316° Northwest  Level Estimated
11:51PM -15.9131 -47.8614 316° Northwest  Level Estimated
11:52PM -15.8636 -47.9116 316° Northwest  Level Estimated
11:53PM -15.8626 -47.9127 316° Northwest  Level Estimated
11:54PM -15.8626 -47.9127 128° Southeast  Level Estimated
11:55PM -15.8626 -47.9127 128° Southeast  Level Estimated
11:56PM -15.8626 -47.9127 128° Southeast  Level Estimated
11:57PM -15.8626 -47.9127 128° Southeast  Level Estimated
11:58PM -15.8626 -47.9127 128° Southeast  Level Estimated
11:59PM -15.8626 -47.9127 128° Southeast  Level Estimated
12:00AM -15.8626 -47.9127 128° Southeast  Level Estimated
12:01AM -15.8626 -47.9127 128° Southeast  Level Estimated
12:02AM -15.8626 -47.9127 128° Southeast  Level Estimated
12:03AM -15.8626 -47.9127 128° Southeast  Level Estimated
12:04AM -15.8626 -47.9127 128° Southeast  Level Estimated
12:05AM -15.8626 -47.9127 128° Southeast  Level Estimated
12:06AM -15.8626 -47.9127 128° Southeast  Level Estimated
12:07AM -15.8626 -47.9127 128° Southeast  Level Estimated
12:08AM -15.8626 -47.9127 128° Southeast  Level Estimated